• Join FlightAware (Why Join?)
  • Login
  • US Flag 
10:19AM EDT


 

Airport Tracker/Info


-or-


 

Live Flight TrackerFlight Track Log ✈ SWA1688 ✈ 16-May-2013 ✈ KMCO - KALB

Flight Track Log - Related Links

Times and Time Zones

All times are in EDT time to prevent confusion due to time zone crossing. See the SWA1688 flight status page for this flight to view local times or setup timezone preferences in your user account.

Time Position Orientation Groundspeed Altitude Reporting Facility
EDT Latitude Longitude Course Direction KTS MPH feet Rate Location/Type
10:19PM 28.4167 -81.3000 150° Southeast 142 163 700  Level Orlando TRACON
10:20PM 28.3667 -81.2667 150° Southeast 209 241 3,500 3,120 Climbing Orlando TRACON
10:21PM 28.3000 -81.2333 156° South 200 230 8,000 3,120 Climbing Orlando TRACON
10:22PM 28.3167 -81.1833 69° East 262 302 10,400 2,340 Climbing Orlando TRACON
10:24PM 28.4667 -81.2136 350° North 300 345 14,800 2,820 Climbing Jacksonville Center
10:25PM 28.5692 -81.2403 347° North 339 390 18,500 3,540 Climbing Jacksonville Center
10:26PM 28.6719 -81.2717 345° North 365 420 21,900 3,000 Climbing Jacksonville Center
10:27PM 28.7767 -81.3008 346° North 382 440 24,600 2,580 Climbing Jacksonville Center
10:28PM 28.8917 -81.3297 348° North 395 455 27,100 2,400 Climbing Jacksonville Center
10:29PM 29.0047 -81.3614 346° North 407 468 29,400 2,100 Climbing Jacksonville Center
10:30PM 29.1242 -81.3950 346° North 420 483 31,400 2,280 Climbing Jacksonville Center
10:31PM 29.2492 -81.3814 North 442 509 34,000 2,460 Climbing Jacksonville Center
10:32PM 29.3697 -81.3414 16° North 442 509 36,400 1,920 Climbing Jacksonville Center
10:33PM 29.4864 -81.3061 15° North 442 509 37,900 1,260 Climbing Jacksonville Center
10:34PM 29.6069 -81.2658 16° North 442 509 39,000 1,380 Climbing Jacksonville Center
10:35PM 29.7275 -81.2256 16° North 442 509 40,700 960 Climbing Jacksonville Center
10:36PM 29.8458 -81.1853 16° North 442 509 41,000 120 Climbing Jacksonville Center
10:37PM 29.9644 -81.1447 16° North 442 509 41,000  Level Jacksonville Center
10:38PM 30.0806 -81.1042 17° North 437 503 41,000  Level Jacksonville Center
10:39PM 30.1969 -81.0636 17° North 437 503 41,000  Level Jacksonville Center
10:40PM 30.3156 -81.0253 16° North 437 503 41,000  Level Jacksonville Center
10:41PM 30.4339 -80.9869 16° North 437 503 41,000  Level Jacksonville Center
10:42PM 30.5500 -80.9386 20° North 437 503 41,000  Level Jacksonville Center
10:43PM 30.6661 -80.8833 22° Northeast 443 510 41,000  Level Jacksonville Center
10:44PM 30.7800 -80.8275 23° Northeast 448 516 41,000  Level Jacksonville Center
10:45PM 30.8961 -80.7717 22° Northeast 448 516 41,000  Level Jacksonville Center
10:46PM 31.0119 -80.7158 22° Northeast 448 516 41,000  Level Jacksonville Center
10:47PM 31.1281 -80.6597 22° Northeast 448 516 41,000  Level Jacksonville Center
10:48PM 31.2439 -80.6086 21° North 448 516 41,000  Level Jacksonville Center
10:49PM 31.3578 -80.5497 24° Northeast 448 516 41,000  Level Jacksonville Center
10:50PM 31.4717 -80.4958 22° Northeast 449 517 41,000  Level Jacksonville Center
10:51PM 31.5731 -80.4444 23° Northeast 449 517 41,000  Level Jacksonville Center
10:52PM 31.6908 -80.3875 22° Northeast 449 517 41,000  Level Jacksonville Center
10:53PM 31.8044 -80.3306 23° Northeast 449 517 41,000  Level Jacksonville Center
10:54PM 31.9203 -80.2736 23° Northeast 449 517 41,000  Level Jacksonville Center
10:55PM 32.0381 -80.2139 23° Northeast 449 517 41,000  Level Jacksonville Center
10:56PM 32.1558 -80.1564 22° Northeast 449 517 41,000  Level Jacksonville Center
10:57PM 32.2714 -80.0989 23° Northeast 449 517 41,000  Level Jacksonville Center
10:58PM 32.3911 -80.0411 22° Northeast 449 517 41,000  Level Jacksonville Center
10:59PM 32.5089 -79.9808 23° Northeast 449 517 41,000  Level Jacksonville Center
11:00PM 32.6244 -79.9228 23° Northeast 449 517 41,000  Level Jacksonville Center
11:01PM 32.7439 -79.8622 23° Northeast 449 517 41,000  Level Jacksonville Center
11:02PM 32.8594 -79.8039 23° Northeast 449 517 41,000 -240 Level Jacksonville Center
11:03PM 32.9769 -79.7453 23° Northeast 449 517 40,600 -720 Descending Jacksonville Center
11:04PM 33.0986 -79.6842 23° Northeast 449 517 39,600 -840 Descending Jacksonville Center
11:05PM 33.2119 -79.6253 23° Northeast 449 517 39,000 -300 Descending Jacksonville Center
11:06PM 33.3272 -79.5664 23° Northeast 449 517 39,000  Level Jacksonville Center
11:07PM 33.4447 -79.5097 22° Northeast 449 517 39,000  Level Jacksonville Center
11:08PM 33.5600 -79.4506 23° Northeast 449 517 39,000  Level Jacksonville Center
11:09PM 33.6753 -79.3911 23° Northeast 449 517 39,000  Level Jacksonville Center
11:10PM 33.7842 -79.3369 22° Northeast 438 504 39,000  Level Jacksonville Center
11:11PM 33.9014 -79.2769 23° Northeast 444 511 39,000  Level Jacksonville Center
11:13PM 34.1183 -79.1664 23° Northeast 441 507 39,000  Level Washington Center
11:14PM 34.2311 -79.0958 27° Northeast 441 507 39,000  Level Washington Center
11:15PM 34.3392 -79.0428 22° Northeast 462 532 39,000  Level Washington Center
11:16PM 34.4678 -78.9878 19° North 456 525 39,000  Level Washington Center
11:17PM 34.5739 -78.9314 24° Northeast 451 519 39,000  Level Washington Center
11:18PM 34.6919 -78.8808 19° North 451 519 39,000  Level Washington Center
11:19PM 34.8103 -78.8247 21° North 451 519 39,000  Level Washington Center
11:20PM 34.9244 -78.7711 21° North 451 519 39,000  Level Washington Center
11:21PM 35.0450 -78.7150 21° North 451 519 39,000  Level Washington Center
11:22PM 35.1631 -78.6611 20° North 451 519 39,000  Level Washington Center
11:23PM 35.2772 -78.6044 22° Northeast 456 525 39,000  Level Washington Center
11:24PM 35.3956 -78.5478 21° North 456 525 39,000  Level Washington Center
11:25PM 35.5244 -78.4861 21° North 451 519 39,000  Level Washington Center
11:26PM 35.6467 -78.4292 21° North 451 519 39,000  Level Washington Center
11:27PM 35.7628 -78.3744 21° North 453 521 39,000  Level Washington Center
11:28PM 35.8789 -78.3197 21° North 448 516 39,000  Level Washington Center
11:29PM 35.9928 -78.2669 21° North 443 510 39,000  Level Washington Center
11:30PM 36.1086 -78.2119 21° North 443 510 39,000  Level Washington Center
11:31PM 36.2225 -78.1539 22° Northeast 437 503 39,000  Level Washington Center
11:32PM 36.3364 -78.0983 21° North 437 503 39,000  Level Washington Center
11:33PM 36.4503 -78.0450 21° North 437 503 39,000  Level Washington Center
11:34PM 36.5642 -77.9867 22° Northeast 437 503 39,000  Level Washington Center
11:35PM 36.6778 -77.9306 22° Northeast 437 503 39,000  Level Washington Center
11:36PM 36.7936 -77.8769 20° North 437 503 39,000  Level Washington Center
11:37PM 36.9053 -77.8206 22° Northeast 437 503 39,000  Level Washington Center
11:38PM 37.0189 -77.7639 22° Northeast 437 503 39,000  Level Washington Center
11:39PM 37.1178 -77.7147 22° Northeast 432 497 39,000  Level Washington Center
11:40PM 37.2272 -77.6603 22° Northeast 422 486 39,000  Level Washington Center
11:41PM 37.3344 -77.6083 21° North 417 480 39,000  Level Washington Center
11:42PM 37.4503 -77.5486 22° Northeast 417 480 39,000  Level Washington Center
11:43PM 37.5492 -77.4989 22° Northeast 417 480 39,000  Level Washington Center
11:44PM 37.6647 -77.4386 22° Northeast 417 480 39,000  Level Washington Center
11:45PM 37.7739 -77.3861 21° North 417 480 39,000  Level Washington Center
11:46PM 37.8811 -77.3308 22° Northeast 417 480 39,000  Level Washington Center
11:47PM 37.9906 -77.2728 23° Northeast 417 480 39,000  Level Washington Center
11:48PM 38.0869 -77.2275 20° North 412 474 39,000  Level Washington Center
11:49PM 38.1964 -77.1664 24° Northeast 417 480 39,000  Level Washington Center
11:50PM 38.3181 -77.1056 21° North 417 480 39,000  Level Washington Center
11:51PM 38.4103 -77.0597 21° North 411 473 39,000  Level Washington Center
11:52PM 38.5172 -77.0033 22° Northeast 411 473 39,000  Level Washington Center
11:53PM 38.6242 -76.9469 22° Northeast 411 473 39,000  Level Washington Center
11:54PM 38.7311 -76.8903 22° Northeast 417 480 39,000  Level Washington Center
11:56PM 39.0069 -76.7483 22° Northeast 418 481 39,000  Level New York Center
11:57PM 39.1161 -76.6906 22° Northeast 418 481 39,000  Level New York Center
11:58PM 39.2261 -76.6219 26° Northeast 424 488 39,000  Level New York Center
11:59PM 39.3344 -76.5397 30° Northeast 436 502 39,000  Level New York Center
12:00AM 39.4386 -76.4567 32° Northeast 441 507 39,000  Level New York Center
12:01AM 39.5444 -76.3764 30° Northeast 441 507 39,000  Level New York Center
12:02AM 39.6528 -76.2933 31° Northeast 441 507 39,000  Level New York Center
12:03AM 39.7567 -76.2122 31° Northeast 446 513 39,000  Level New York Center
12:04AM 39.8558 -76.1361 30° Northeast 453 521 39,000  Level New York Center
12:05AM 39.9575 -76.0572 31° Northeast 441 507 39,000  Level New York Center
12:06AM 40.0556 -75.9589 37° Northeast 441 507 39,000 -420 Level New York Center
12:07AM 40.1383 -75.8319 50° Northeast 436 502 38,200 -1,500 Descending New York Center
12:08AM 40.2164 -75.7125 49° Northeast 436 502 36,000 -2,520 Descending New York Center
12:09AM 40.3033 -75.5744 50° Northeast 436 502 33,200 -2,880 Descending New York Center
12:10AM 40.3856 -75.4467 50° Northeast 449 517 30,300 -2,100 Descending New York Center
12:11AM 40.4719 -75.3161 49° Northeast 460 529 29,000 -660 Descending New York Center
12:12AM 40.5603 -75.1883 48° Northeast 460 529 29,000  Level New York Center
12:14AM 40.8147 -74.9878 31° Northeast 460 529 29,000  Level Boston Center
12:15AM 40.9289 -74.9153 26° Northeast 448 516 29,000  Level Boston Center
12:16AM 41.0494 -74.8403 25° Northeast 435 501 29,000 -660 Level Boston Center
12:17AM 41.1614 -74.7700 25° Northeast 435 501 27,700 -1,140 Descending Boston Center
12:18AM 41.2667 -74.7103 23° Northeast 441 507 26,800 -900 Descending Boston Center
12:19AM 41.3744 -74.6394 26° Northeast 446 513 26,000 -420 Descending Boston Center
12:20AM 41.4822 -74.5681 26° Northeast 436 502 26,000  Level Boston Center
12:21AM 41.5961 -74.4914 27° Northeast 421 484 26,000 -1,200 Level Boston Center
12:22AM 41.7036 -74.4256 25° Northeast 421 484 23,600 -2,700 Descending Boston Center
12:23AM 41.7961 -74.3700 24° Northeast 420 483 20,700 -3,060 Descending Boston Center
12:24AM 41.8975 -74.3006 27° Northeast 399 459 17,500 -3,180 Descending Boston Center
12:25AM 42.0047 -74.2311 26° Northeast 381 438 14,400 -3,120 Descending Boston Center
12:26AM 42.0575 -74.1961 26° Northeast 379 436 12,700 -2,520 Descending Boston Center
12:26AM 42.0869 -74.1772 25° Northeast 381 438 11,900 -1,500 Descending Boston Center
12:27AM 42.1544 -74.1344 25° Northeast 357 411 11,100 -840 Descending Boston Center
12:27AM 42.1858 -74.1128 27° Northeast 358 412 11,100 -600 Level Boston Center
12:28AM 42.2386 -74.0778 26° Northeast 297 342 10,500 -1,020 Descending Boston Center
12:28AM 42.2597 -74.0614 30° Northeast 309 356 10,100 -1,740 Descending Boston Center
12:29AM 42.3100 -74.0347 21° North 276 318 8,800 -1,380 Descending Boston Center
12:30AM 42.3375 -74.0131 30° Northeast 285 328 8,200 -1,620 Descending Boston Center
12:30AM 42.3775 -73.9858 27° Northeast 281 323 7,200 -2,040 Descending Boston Center
12:31AM 42.4217 -73.9561 26° Northeast 280 322 6,200 -1,500 Descending Boston Center
12:31AM 42.4489 -73.9425 20° North 280 322 5,700 -1,200 Descending Boston Center
12:32AM 42.4950 -73.9100 27° Northeast 275 316 5,000 -1,140 Descending Boston Center
12:32AM 42.5139 -73.8992 23° Northeast 256 295 4,600 -900 Descending Boston Center
12:33AM 42.5478 -73.8744 28° Northeast 249 287 4,100 -720 Descending Boston Center
12:33AM 42.5708 -73.8608 23° Northeast 216 249 3,900 -840 Descending Boston Center
12:34AM 42.5919 -73.8444 30° Northeast 210 242 3,300 -1,020 Descending Boston Center
12:34AM 42.6147 -73.8339 19° North 171 197 2,900 -720 Descending Boston Center
12:35AM 42.6400 -73.8144 30° Northeast 183 211 2,600 -600 Descending Boston Center
12:35AM 42.6547 -73.8036 28° Northeast 139 160 2,300 -540 Descending Boston Center
12:36AM 42.6864 -73.7844 24° Northeast 167 192 2,100 -1,020 Descending Boston Center
12:36AM 42.6881 -73.8044 276° West 114 131 1,300 -1,080 Descending Boston Center
12:37AM 42.7194 -73.8078 356° North 108 124 700 -600 Descending Boston Center